Time;durP1;ratioP1;P1;durP2;ratioP2;P2;SDS_P1;SDS_P2;PMS_P1;PMS_P2;Temp;Humidity;BMP_temperature;BMP_pressure;BME280_temperature;BME280_humidity;BME280_pressure;Samples;Min_cycle;Max_cycle;Signal;HPM_P1;HPM_P2
2023/03/07 00:02:26;;;;;;;11.63;6.60;;;;;;;;;;5054929;28;20198;-68
2023/03/07 00:04:55;;;;;;;10.85;6.82;;;;;;;;;;5055473;28;20198;-69
2023/03/07 00:07:22;;;;;;;10.02;5.93;;;;;;;;;;5052875;28;20202;-68
2023/03/07 00:09:49;;;;;;;11.55;6.63;;;;;;;;;;5050665;28;20200;-68
2023/03/07 00:12:16;;;;;;;12.73;6.40;;;;;;;;;;5035039;28;20677;-68
2023/03/07 00:14:43;;;;;;;13.50;8.05;;;;;;;;;;5035028;28;20219;-68
2023/03/07 00:17:10;;;;;;;11.85;6.78;;;;;;;;;;5034835;28;20602;-68
2023/03/07 00:19:37;;;;;;;9.20;6.38;;;;;;;;;;5035149;28;20215;-68
2023/03/07 00:22:05;;;;;;;9.85;5.70;;;;;;;;;;5034993;28;20199;-68
2023/03/07 00:24:32;;;;;;;6.30;4.90;;;;;;;;;;5035086;28;20552;-69
2023/03/07 00:26:59;;;;;;;7.97;5.22;;;;;;;;;;5034389;28;20223;-68
2023/03/07 00:29:26;;;;;;;8.43;5.20;;;;;;;;;;5038364;28;20199;-68
2023/03/07 00:31:54;;;;;;;6.35;4.30;;;;;;;;;;5054312;28;20210;-68
2023/03/07 00:34:21;;;;;;;6.32;4.20;;;;;;;;;;5054817;28;20225;-68
2023/03/07 00:36:48;;;;;;;5.20;3.50;;;;;;;;;;5054421;28;20229;-68
2023/03/07 00:39:16;;;;;;;5.20;4.10;;;;;;;;;;5054587;28;20206;-68
2023/03/07 00:41:43;;;;;;;4.88;3.25;;;;;;;;;;5052468;28;20253;-69
2023/03/07 00:44:10;;;;;;;3.75;3.10;;;;;;;;;;5054331;28;20199;-68
2023/03/07 00:46:37;;;;;;;4.35;3.30;;;;;;;;;;5054390;28;20218;-69
2023/03/07 00:49:04;;;;;;;6.00;3.65;;;;;;;;;;5039888;28;20204;-68
2023/03/07 00:51:31;;;;;;;3.70;3.10;;;;;;;;;;5034406;28;20250;-68
2023/03/07 00:53:58;;;;;;;3.20;2.90;;;;;;;;;;5033341;28;20226;-68
2023/03/07 00:56:27;;;;;;;3.45;2.88;;;;;;;;;;5034677;28;20655;-69
2023/03/07 00:58:54;;;;;;;4.78;3.55;;;;;;;;;;5032625;28;20576;-68
2023/03/07 01:01:22;;;;;;;3.05;2.53;;;;;;;;;;5033668;28;20210;-68
2023/03/07 01:03:52;;;;;;;4.07;3.33;;;;;;;;;;5033840;28;20202;-69
2023/03/07 01:06:20;;;;;;;4.55;3.10;;;;;;;;;;5054144;28;20770;-69
2023/03/07 01:08:47;;;;;;;4.20;3.00;;;;;;;;;;5054072;28;20198;-68
2023/03/07 01:11:14;;;;;;;3.58;2.90;;;;;;;;;;5035410;28;20223;-67
2023/03/07 01:13:43;;;;;;;5.60;3.10;;;;;;;;;;5033791;28;20211;-69
2023/03/07 01:16:11;;;;;;;3.60;2.70;;;;;;;;;;5053773;28;20734;-69
2023/03/07 01:18:39;;;;;;;4.70;3.22;;;;;;;;;;5054129;28;20222;-68
2023/03/07 01:21:13;;;;;;;5.35;3.17;;;;;;;;;;5050013;28;20571;-69
2023/03/07 01:23:40;;;;;;;3.65;2.85;;;;;;;;;;5034065;28;20567;-69
2023/03/07 01:26:08;;;;;;;2.97;2.47;;;;;;;;;;5032867;28;20221;-69
2023/03/07 01:28:35;;;;;;;3.40;2.72;;;;;;;;;;5033879;28;20230;-69
2023/03/07 01:31:03;;;;;;;3.33;2.65;;;;;;;;;;5033472;28;20673;-69
2023/03/07 01:33:30;;;;;;;3.05;2.50;;;;;;;;;;5049511;28;20573;-68
2023/03/07 01:35:57;;;;;;;2.22;2.03;;;;;;;;;;5053322;28;20233;-68
2023/03/07 01:38:24;;;;;;;3.42;2.60;;;;;;;;;;5053514;28;20210;-69
2023/03/07 01:40:51;;;;;;;2.97;2.42;;;;;;;;;;5052845;28;20205;-69
2023/03/07 01:43:22;;;;;;;4.18;2.65;;;;;;;;;;5051219;28;20580;-69
2023/03/07 01:46:23;;;;;;;3.65;2.40;;;;;;;;;;5048697;28;20250;-69
2023/03/07 01:48:52;;;;;;;3.42;2.78;;;;;;;;;;5033745;28;20321;-69
2023/03/07 01:51:20;;;;;;;3.85;3.00;;;;;;;;;;5032369;28;20686;-69
2023/03/07 01:53:49;;;;;;;2.67;2.22;;;;;;;;;;5033243;28;20211;-68
2023/03/07 01:56:16;;;;;;;5.03;3.30;;;;;;;;;;5033402;28;20311;-68
2023/03/07 01:58:43;;;;;;;3.17;2.83;;;;;;;;;;5033164;28;20218;-69
2023/03/07 02:01:12;;;;;;;3.58;2.95;;;;;;;;;;5043958;28;20695;-67
2023/03/07 02:03:42;;;;;;;3.97;3.10;;;;;;;;;;5050870;28;20660;-68
2023/03/07 02:06:11;;;;;;;3.13;2.83;;;;;;;;;;5053231;28;20588;-68
2023/03/07 02:08:39;;;;;;;3.97;3.13;;;;;;;;;;5052531;28;20202;-67
2023/03/07 02:11:07;;;;;;;5.93;3.50;;;;;;;;;;5052036;28;20195;-69
2023/03/07 02:13:34;;;;;;;4.88;3.70;;;;;;;;;;5052589;28;20198;-69
2023/03/07 02:16:02;;;;;;;4.15;3.30;;;;;;;;;;5050254;28;20568;-69
2023/03/07 02:18:32;;;;;;;5.32;4.28;;;;;;;;;;5050514;28;20678;-69
2023/03/07 02:21:04;;;;;;;4.22;3.22;;;;;;;;;;5032721;28;20571;-69
2023/03/07 02:23:37;;;;;;;3.90;2.97;;;;;;;;;;5033809;28;20791;-69
2023/03/07 02:26:08;;;;;;;4.40;3.60;;;;;;;;;;5052227;28;20237;-69
2023/03/07 02:28:38;;;;;;;5.05;3.95;;;;;;;;;;5052534;28;20201;-69
2023/03/07 02:31:07;;;;;;;4.88;4.05;;;;;;;;;;5038364;28;20522;-69
2023/03/07 02:33:34;;;;;;;5.45;3.80;;;;;;;;;;5031099;28;20206;-68
2023/03/07 02:36:03;;;;;;;4.30;3.65;;;;;;;;;;5032066;28;20234;-68
2023/03/07 02:38:35;;;;;;;5.63;4.00;;;;;;;;;;5032507;28;20210;-68
2023/03/07 02:41:02;;;;;;;4.55;3.65;;;;;;;;;;5031528;28;20214;-68
2023/03/07 02:43:29;;;;;;;5.45;4.05;;;;;;;;;;5032283;28;20273;-68
2023/03/07 02:45:58;;;;;;;6.32;4.30;;;;;;;;;;5037491;28;20719;-68
2023/03/07 02:48:25;;;;;;;4.88;4.40;;;;;;;;;;5052390;28;20210;-69
2023/03/07 02:50:52;;;;;;;6.53;4.25;;;;;;;;;;5051915;28;20203;-68
2023/03/07 02:53:19;;;;;;;6.57;4.43;;;;;;;;;;5048807;28;20194;-69
2023/03/07 02:55:46;;;;;;;5.15;4.32;;;;;;;;;;5052010;28;20223;-68
2023/03/07 02:58:14;;;;;;;4.38;3.70;;;;;;;;;;5046740;28;20210;-68
2023/03/07 03:00:41;;;;;;;6.45;4.32;;;;;;;;;;5051804;28;20555;-69
2023/03/07 03:03:10;;;;;;;5.13;4.28;;;;;;;;;;5041617;28;20210;-68
2023/03/07 03:05:37;;;;;;;4.85;3.75;;;;;;;;;;5051219;28;20215;-68
2023/03/07 03:08:04;;;;;;;6.22;4.47;;;;;;;;;;5049238;28;20210;-68
2023/03/07 03:10:32;;;;;;;5.10;4.30;;;;;;;;;;5051975;28;20221;-69
2023/03/07 03:12:59;;;;;;;4.35;3.67;;;;;;;;;;5037592;28;20209;-68
2023/03/07 03:15:26;;;;;;;6.60;3.33;;;;;;;;;;5048867;28;20486;-68
2023/03/07 03:17:54;;;;;;;4.75;4.07;;;;;;;;;;5050383;28;20576;-68
2023/03/07 03:20:24;;;;;;;4.93;3.63;;;;;;;;;;5051018;28;20206;-68
2023/03/07 03:22:52;;;;;;;6.45;4.22;;;;;;;;;;5033832;28;20668;-69
2023/03/07 03:25:21;;;;;;;6.82;4.55;;;;;;;;;;5031571;28;20583;-68
2023/03/07 03:27:49;;;;;;;5.20;3.65;;;;;;;;;;5030301;28;20227;-69
2023/03/07 03:30:16;;;;;;;5.45;4.38;;;;;;;;;;5031404;28;20203;-68
2023/03/07 03:32:43;;;;;;;5.18;3.65;;;;;;;;;;5031719;28;20195;-69
2023/03/07 03:35:11;;;;;;;5.80;4.53;;;;;;;;;;5031572;28;20648;-69
2023/03/07 03:37:39;;;;;;;6.00;4.60;;;;;;;;;;5031063;28;20203;-69
2023/03/07 03:40:13;;;;;;;5.80;4.53;;;;;;;;;;5050757;28;20245;-68
2023/03/07 03:42:40;;;;;;;5.32;4.18;;;;;;;;;;5051316;28;20206;-68
2023/03/07 03:45:08;;;;;;;5.07;4.47;;;;;;;;;;5049796;28;20194;-68
2023/03/07 03:47:35;;;;;;;6.20;3.95;;;;;;;;;;5051236;28;20202;-69
2023/03/07 03:50:02;;;;;;;5.18;4.53;;;;;;;;;;5051693;28;20205;-69
2023/03/07 03:52:29;;;;;;;5.53;4.10;;;;;;;;;;5038819;28;20676;-68
2023/03/07 03:54:57;;;;;;;5.70;4.05;;;;;;;;;;5030944;28;20221;-69
2023/03/07 03:57:24;;;;;;;5.63;3.85;;;;;;;;;;5031861;28;20199;-68
2023/03/07 03:59:52;;;;;;;5.63;4.53;;;;;;;;;;5037515;28;20207;-69
2023/03/07 04:02:19;;;;;;;5.18;3.90;;;;;;;;;;5050825;28;20199;-68
2023/03/07 04:04:46;;;;;;;4.13;3.60;;;;;;;;;;5047024;28;20341;-69
2023/03/07 04:07:13;;;;;;;6.38;4.15;;;;;;;;;;5051135;28;20598;-67
2023/03/07 04:09:40;;;;;;;4.55;3.50;;;;;;;;;;5035329;28;20219;-67
2023/03/07 04:12:09;;;;;;;7.75;5.10;;;;;;;;;;5041744;28;20594;-68
2023/03/07 04:14:36;;;;;;;5.85;3.97;;;;;;;;;;5049294;28;20222;-68
2023/03/07 04:17:03;;;;;;;6.00;4.28;;;;;;;;;;5034200;28;20219;-68
2023/03/07 04:19:30;;;;;;;7.70;4.50;;;;;;;;;;5044133;28;20207;-68
2023/03/07 04:21:57;;;;;;;7.63;5.25;;;;;;;;;;5050567;28;20206;-68
2023/03/07 04:24:24;;;;;;;8.73;5.45;;;;;;;;;;5045825;28;20207;-68
2023/03/07 04:26:51;;;;;;;5.60;4.10;;;;;;;;;;5030634;28;20219;-68
2023/03/07 04:29:19;;;;;;;7.20;4.90;;;;;;;;;;5031467;28;20199;-68
2023/03/07 04:31:46;;;;;;;4.70;3.67;;;;;;;;;;5031117;28;20206;-68
2023/03/07 04:34:13;;;;;;;4.25;3.78;;;;;;;;;;5032503;28;20206;-68
2023/03/07 04:36:40;;;;;;;7.45;4.07;;;;;;;;;;5034668;28;20230;-68
2023/03/07 04:39:08;;;;;;;6.18;4.45;;;;;;;;;;5034733;28;20195;-68
2023/03/07 04:41:35;;;;;;;6.03;4.80;;;;;;;;;;5033786;28;20203;-68
2023/03/07 04:44:02;;;;;;;8.02;5.28;;;;;;;;;;5034892;28;20195;-68
2023/03/07 04:46:30;;;;;;;6.43;4.68;;;;;;;;;;5034667;28;20223;-67
2023/03/07 04:48:57;;;;;;;5.00;4.15;;;;;;;;;;5049665;28;20194;-68
2023/03/07 04:51:24;;;;;;;5.57;3.90;;;;;;;;;;5054142;28;20679;-66
2023/03/07 04:53:51;;;;;;;6.85;5.13;;;;;;;;;;5051995;28;20194;-68
2023/03/07 04:56:19;;;;;;;7.20;4.55;;;;;;;;;;5054097;28;20698;-68
2023/03/07 04:58:46;;;;;;;8.00;5.57;;;;;;;;;;5042187;28;20210;-68
2023/03/07 05:01:13;;;;;;;7.88;5.18;;;;;;;;;;5046438;28;20199;-68
2023/03/07 05:03:41;;;;;;;10.05;5.68;;;;;;;;;;5054130;28;20206;-68
2023/03/07 05:06:11;;;;;;;6.85;4.75;;;;;;;;;;5048717;28;20328;-68
2023/03/07 05:08:38;;;;;;;7.43;4.93;;;;;;;;;;5034570;28;20204;-68
2023/03/07 05:11:05;;;;;;;9.07;5.20;;;;;;;;;;5034369;28;20205;-68
2023/03/07 05:13:32;;;;;;;7.10;5.32;;;;;;;;;;5032900;28;20210;-67
2023/03/07 05:15:59;;;;;;;8.23;6.47;;;;;;;;;;5053313;28;20226;-68
2023/03/07 05:18:27;;;;;;;6.85;4.60;;;;;;;;;;5053005;28;20202;-68
2023/03/07 05:20:55;;;;;;;7.60;5.28;;;;;;;;;;5033777;28;20206;-68
2023/03/07 05:23:22;;;;;;;7.18;5.45;;;;;;;;;;5033129;28;20691;-68
2023/03/07 05:25:50;;;;;;;10.73;5.90;;;;;;;;;;5047170;28;20230;-68
2023/03/07 05:28:17;;;;;;;7.22;5.30;;;;;;;;;;5053881;28;20198;-68
2023/03/07 05:30:44;;;;;;;9.25;5.78;;;;;;;;;;5039662;28;20202;-68
2023/03/07 05:33:11;;;;;;;9.50;5.45;;;;;;;;;;5032498;28;20199;-68
2023/03/07 05:35:39;;;;;;;14.38;7.28;;;;;;;;;;5050901;22;20234;-69
2023/03/07 05:38:07;;;;;;;8.07;6.38;;;;;;;;;;5053231;28;20198;-68
2023/03/07 05:40:34;;;;;;;9.30;5.95;;;;;;;;;;5052896;28;20217;-68
2023/03/07 05:43:01;;;;;;;8.75;6.00;;;;;;;;;;5053276;28;20214;-69
2023/03/07 05:45:29;;;;;;;11.63;5.85;;;;;;;;;;5050736;28;20226;-68
2023/03/07 05:47:56;;;;;;;7.47;5.60;;;;;;;;;;5033178;28;20546;-69
2023/03/07 05:50:23;;;;;;;8.93;5.55;;;;;;;;;;5033779;28;20222;-69
2023/03/07 05:52:51;;;;;;;9.35;6.50;;;;;;;;;;5047452;28;20206;-69
2023/03/07 05:55:20;;;;;;;10.35;6.45;;;;;;;;;;5053117;28;20513;-69
2023/03/07 05:57:47;;;;;;;11.45;6.10;;;;;;;;;;5050968;28;20372;-68
2023/03/07 06:00:15;;;;;;;6.45;5.60;;;;;;;;;;5032715;28;20207;-68
2023/03/07 06:02:42;;;;;;;8.50;5.88;;;;;;;;;;5042030;28;20202;-68
2023/03/07 06:05:10;;;;;;;9.13;6.82;;;;;;;;;;5053000;28;20218;-68
2023/03/07 06:07:37;;;;;;;8.98;5.65;;;;;;;;;;5052779;28;20218;-68
2023/03/07 06:10:04;;;;;;;8.77;5.70;;;;;;;;;;5052755;28;20210;-68
2023/03/07 06:12:32;;;;;;;13.60;6.38;;;;;;;;;;5052697;28;20213;-70
2023/03/07 06:15:00;;;;;;;10.35;6.82;;;;;;;;;;5047968;28;20203;-68
2023/03/07 06:17:27;;;;;;;9.20;6.53;;;;;;;;;;5036342;28;20714;-68
2023/03/07 06:19:54;;;;;;;8.35;6.35;;;;;;;;;;5034160;28;20214;-68
2023/03/07 06:22:21;;;;;;;12.60;7.22;;;;;;;;;;5032320;28;20203;-66
2023/03/07 06:24:48;;;;;;;10.48;6.90;;;;;;;;;;5052023;28;20206;-66
2023/03/07 06:27:15;;;;;;;12.60;7.85;;;;;;;;;;5052657;28;20234;-70
2023/03/07 06:29:43;;;;;;;15.48;7.57;;;;;;;;;;5031146;28;20207;-68
2023/03/07 06:32:10;;;;;;;11.55;7.55;;;;;;;;;;5032024;28;20196;-68
2023/03/07 06:34:37;;;;;;;20.00;7.75;;;;;;;;;;5031927;28;20633;-68
2023/03/07 06:37:05;;;;;;;12.65;7.03;;;;;;;;;;5043085;28;20223;-68
2023/03/07 06:39:32;;;;;;;8.85;6.95;;;;;;;;;;5052473;28;20290;-68
2023/03/07 06:41:59;;;;;;;10.20;7.68;;;;;;;;;;5050240;28;20198;-69
2023/03/07 06:44:26;;;;;;;10.55;7.30;;;;;;;;;;5049699;28;20203;-68
2023/03/07 06:46:54;;;;;;;8.23;6.47;;;;;;;;;;5049942;28;20583;-68
2023/03/07 06:49:21;;;;;;;11.77;7.20;;;;;;;;;;5043638;28;20195;-70
2023/03/07 06:51:49;;;;;;;9.57;6.60;;;;;;;;;;5041861;28;20206;-70
2023/03/07 06:54:16;;;;;;;9.98;6.68;;;;;;;;;;5046060;28;20659;-70
2023/03/07 06:56:43;;;;;;;11.50;7.25;;;;;;;;;;5050213;28;20230;-70
2023/03/07 06:59:10;;;;;;;11.02;7.45;;;;;;;;;;5049025;28;20277;-69
2023/03/07 07:01:37;;;;;;;10.18;7.38;;;;;;;;;;5051499;28;20268;-70
2023/03/07 07:04:06;;;;;;;14.38;7.75;;;;;;;;;;5051126;28;20209;-70
2023/03/07 07:06:33;;;;;;;10.07;7.78;;;;;;;;;;5049484;28;20225;-70
2023/03/07 07:09:00;;;;;;;13.70;7.20;;;;;;;;;;5052004;28;20226;-71
2023/03/07 07:11:27;;;;;;;10.52;7.25;;;;;;;;;;5049400;28;20195;-71
2023/03/07 07:13:54;;;;;;;14.15;8.52;;;;;;;;;;5045669;28;20202;-71
2023/03/07 07:16:21;;;;;;;16.10;8.65;;;;;;;;;;5039269;28;20706;-71
2023/03/07 07:18:50;;;;;;;14.15;8.18;;;;;;;;;;5051329;28;20682;-70
2023/03/07 07:21:19;;;;;;;11.00;7.38;;;;;;;;;;5046951;28;20779;-70
2023/03/07 07:23:46;;;;;;;12.32;6.75;;;;;;;;;;5045123;28;20244;-69
2023/03/07 07:26:13;;;;;;;14.02;7.97;;;;;;;;;;5051329;28;20866;-70
2023/03/07 07:28:40;;;;;;;10.30;7.28;;;;;;;;;;5049608;28;20576;-69
2023/03/07 07:31:08;;;;;;;11.98;8.10;;;;;;;;;;5051120;28;20198;-69
2023/03/07 07:33:35;;;;;;;12.75;7.30;;;;;;;;;;5046741;28;20199;-69
2023/03/07 07:36:02;;;;;;;9.77;5.75;;;;;;;;;;5051411;28;20608;-69
2023/03/07 07:38:30;;;;;;;11.23;6.05;;;;;;;;;;5048374;28;20203;-70
2023/03/07 07:40:57;;;;;;;11.18;6.10;;;;;;;;;;5043883;28;20575;-69
2023/03/07 07:43:24;;;;;;;9.55;6.63;;;;;;;;;;5029968;28;20234;-69
2023/03/07 07:45:51;;;;;;;9.10;5.90;;;;;;;;;;5039762;28;20214;-69
2023/03/07 07:48:18;;;;;;;11.18;6.55;;;;;;;;;;5047984;28;20194;-69
2023/03/07 07:50:46;;;;;;;9.13;5.45;;;;;;;;;;5048512;28;20195;-70
2023/03/07 07:53:13;;;;;;;7.60;5.40;;;;;;;;;;5050993;28;20202;-69
2023/03/07 07:55:41;;;;;;;7.25;5.35;;;;;;;;;;5048655;28;20226;-71
2023/03/07 07:58:08;;;;;;;12.02;6.70;;;;;;;;;;5051080;28;20195;-70
2023/03/07 08:00:35;;;;;;;12.82;5.90;;;;;;;;;;5047116;28;20198;-70
2023/03/07 08:03:02;;;;;;;12.35;6.32;;;;;;;;;;5048868;28;20199;-70
2023/03/07 08:05:29;;;;;;;12.18;6.55;;;;;;;;;;5050300;28;20206;-70
2023/03/07 08:07:57;;;;;;;11.25;7.13;;;;;;;;;;5045209;28;20617;-70
2023/03/07 08:10:24;;;;;;;11.82;7.47;;;;;;;;;;5047875;28;20814;-68
2023/03/07 08:12:53;;;;;;;10.35;7.03;;;;;;;;;;5050271;28;20468;-68
2023/03/07 08:15:21;;;;;;;10.70;7.00;;;;;;;;;;5050292;28;20199;-68
2023/03/07 08:17:49;;;;;;;10.38;6.95;;;;;;;;;;5053084;28;20194;-68
2023/03/07 08:20:16;;;;;;;11.32;6.20;;;;;;;;;;5054703;28;20662;-68
2023/03/07 08:22:43;;;;;;;11.73;6.15;;;;;;;;;;5053770;28;20198;-68
2023/03/07 08:25:16;;;;;;;9.10;5.85;;;;;;;;;;5051322;28;20199;-68
2023/03/07 08:27:43;;;;;;;8.75;5.20;;;;;;;;;;5055100;28;20202;-68
2023/03/07 08:30:12;;;;;;;9.40;5.95;;;;;;;;;;5051228;28;20206;-71
2023/03/07 08:32:39;;;;;;;13.90;6.00;;;;;;;;;;5051830;28;20683;-69
2023/03/07 08:35:07;;;;;;;9.40;5.40;;;;;;;;;;5052016;28;20211;-71
2023/03/07 08:37:34;;;;;;;7.38;4.75;;;;;;;;;;5054215;28;20260;-71
2023/03/07 08:40:01;;;;;;;9.40;7.00;;;;;;;;;;5054422;28;20671;-69
2023/03/07 08:42:28;;;;;;;10.25;5.05;;;;;;;;;;5052153;28;20230;-74
2023/03/07 08:44:55;;;;;;;9.20;5.70;;;;;;;;;;5054116;28;20202;-74
2023/03/07 08:47:24;;;;;;;5.53;4.30;;;;;;;;;;5053829;28;20211;-72
2023/03/07 08:49:51;;;;;;;8.20;5.13;;;;;;;;;;5052469;28;20198;-71
2023/03/07 08:52:18;;;;;;;5.55;4.93;;;;;;;;;;5049216;28;20191;-72
2023/03/07 08:54:45;;;;;;;5.95;4.13;;;;;;;;;;5050872;28;20479;-73
2023/03/07 08:57:12;;;;;;;5.35;4.55;;;;;;;;;;5052442;28;20250;-71
2023/03/07 08:59:39;;;;;;;7.18;4.97;;;;;;;;;;5051902;28;20568;-70
2023/03/07 09:02:07;;;;;;;6.07;4.38;;;;;;;;;;5050183;28;20679;-70
2023/03/07 09:04:35;;;;;;;7.32;4.47;;;;;;;;;;5054109;28;20198;-71
2023/03/07 09:07:02;;;;;;;5.63;4.45;;;;;;;;;;5053536;28;20711;-74
2023/03/07 09:09:30;;;;;;;7.72;5.40;;;;;;;;;;5053713;28;20195;-71
2023/03/07 09:11:57;;;;;;;6.93;5.10;;;;;;;;;;5052641;28;20210;-72
2023/03/07 09:14:24;;;;;;;5.55;4.45;;;;;;;;;;5049781;28;20198;-70
2023/03/07 09:16:51;;;;;;;4.30;3.63;;;;;;;;;;5050781;28;20226;-70
2023/03/07 09:19:18;;;;;;;5.78;4.55;;;;;;;;;;5034009;28;20204;-70
2023/03/07 09:21:47;;;;;;;5.43;4.03;;;;;;;;;;5031747;28;20210;-70
2023/03/07 09:24:14;;;;;;;5.15;3.80;;;;;;;;;;5033964;28;20210;-70
2023/03/07 09:26:41;;;;;;;4.65;4.22;;;;;;;;;;5033152;28;20215;-70
2023/03/07 09:29:08;;;;;;;7.43;4.57;;;;;;;;;;5033982;28;20199;-69
2023/03/07 09:31:35;;;;;;;4.78;3.75;;;;;;;;;;5050247;28;20252;-71
2023/03/07 09:34:04;;;;;;;5.15;4.03;;;;;;;;;;5053868;28;20198;-72
2023/03/07 09:36:31;;;;;;;5.50;4.30;;;;;;;;;;5051674;28;20751;-73
2023/03/07 09:38:59;;;;;;;7.35;4.80;;;;;;;;;;5042900;28;20572;-74
2023/03/07 09:41:43;;;;;;;6.10;4.53;;;;;;;;;;5038862;28;20199;-74
2023/03/07 09:44:15;;;;;;;5.43;3.90;;;;;;;;;;5033823;28;20576;-69
2023/03/07 09:46:45;;;;;;;6.78;5.10;;;;;;;;;;5032374;28;20211;-70
2023/03/07 09:49:20;;;;;;;7.30;4.90;;;;;;;;;;5033629;28;20200;-72
2023/03/07 09:51:49;;;;;;;7.93;5.18;;;;;;;;;;5037151;28;20206;-70
2023/03/07 09:54:19;;;;;;;7.75;5.00;;;;;;;;;;5053446;28;20198;-70
2023/03/07 09:56:48;;;;;;;9.20;4.00;;;;;;;;;;5053183;28;20561;-71
2023/03/07 09:59:21;;;;;;;7.47;4.65;;;;;;;;;;5048667;28;20202;-71
2023/03/07 10:01:49;;;;;;;8.40;5.75;;;;;;;;;;5050703;28;20202;-70
2023/03/07 10:04:20;;;;;;;6.72;4.63;;;;;;;;;;5052791;28;20206;-71
2023/03/07 10:06:52;;;;;;;6.28;5.00;;;;;;;;;;5053247;28;20215;-71
2023/03/07 10:09:22;;;;;;;8.75;4.93;;;;;;;;;;5052970;28;20199;-71
2023/03/07 10:11:57;;;;;;;8.25;4.82;;;;;;;;;;5052855;28;20198;-70
2023/03/07 10:14:36;;;;;;;6.30;4.72;;;;;;;;;;5052813;28;20209;-70
2023/03/07 10:17:07;;;;;;;8.25;5.15;;;;;;;;;;5037163;28;20230;-70
2023/03/07 10:19:38;;;;;;;8.80;5.25;;;;;;;;;;5051780;28;20198;-69
2023/03/07 10:22:09;;;;;;;8.25;5.20;;;;;;;;;;5052644;28;20198;-70
2023/03/07 10:24:46;;;;;;;7.22;4.57;;;;;;;;;;5050326;28;20202;-70
2023/03/07 10:27:14;;;;;;;5.55;3.97;;;;;;;;;;5052523;28;20660;-71
2023/03/07 10:29:45;;;;;;;6.25;5.10;;;;;;;;;;5038662;28;20199;-70
2023/03/07 10:32:23;;;;;;;5.63;4.22;;;;;;;;;;5032392;28;20206;-72
2023/03/07 10:34:54;;;;;;;5.18;4.13;;;;;;;;;;5041887;28;20217;-71
2023/03/07 10:37:22;;;;;;;4.15;3.75;;;;;;;;;;5052486;28;20564;-71
2023/03/07 10:39:52;;;;;;;5.32;4.15;;;;;;;;;;5049504;28;20199;-70
2023/03/07 10:42:21;;;;;;;6.13;4.03;;;;;;;;;;5031782;28;20218;-71
2023/03/07 10:44:49;;;;;;;5.32;3.72;;;;;;;;;;5032518;28;20202;-70
2023/03/07 10:47:19;;;;;;;4.88;3.85;;;;;;;;;;5032255;28;20310;-71
2023/03/07 10:49:47;;;;;;;6.88;4.40;;;;;;;;;;5030592;28;20202;-72
2023/03/07 10:52:20;;;;;;;6.50;3.47;;;;;;;;;;5031423;28;20207;-72
2023/03/07 10:54:47;;;;;;;4.60;3.70;;;;;;;;;;5032287;28;20207;-73
2023/03/07 10:57:16;;;;;;;6.10;4.13;;;;;;;;;;5032183;28;20226;-72
2023/03/07 10:59:44;;;;;;;6.22;4.15;;;;;;;;;;5031585;28;20204;-69
2023/03/07 11:02:31;;;;;;;4.47;3.47;;;;;;;;;;5031957;28;20199;-72
2023/03/07 11:04:59;;;;;;;5.82;4.20;;;;;;;;;;5030676;28;20195;-70
2023/03/07 11:07:27;;;;;;;5.85;4.55;;;;;;;;;;5032329;28;20295;-71
2023/03/07 11:09:55;;;;;;;5.45;4.18;;;;;;;;;;5051888;28;20198;-72
2023/03/07 11:12:24;;;;;;;5.20;4.03;;;;;;;;;;5050725;28;20202;-69
2023/03/07 11:14:52;;;;;;;5.60;4.85;;;;;;;;;;5051841;28;20552;-69
2023/03/07 11:17:20;;;;;;;5.35;4.45;;;;;;;;;;5050898;28;20226;-70
2023/03/07 11:19:48;;;;;;;7.65;3.95;;;;;;;;;;5048817;28;20615;-70
2023/03/07 11:22:26;;;;;;;6.55;4.20;;;;;;;;;;5049057;28;20644;-70
2023/03/07 11:24:55;;;;;;;5.40;4.20;;;;;;;;;;5049155;28;20202;-70
2023/03/07 11:27:25;;;;;;;8.60;5.80;;;;;;;;;;5035975;28;20569;-71
2023/03/07 11:30:23;;;;;;;6.70;5.00;;;;;;;;;;5032329;28;20203;-70
2023/03/07 11:32:54;;;;;;;8.32;6.38;;;;;;;;;;4969907;28;20205;-71
2023/03/07 11:35:22;;;;;;;6.63;4.88;;;;;;;;;;5019263;28;20208;-70
2023/03/07 11:37:55;;;;;;;6.68;4.65;;;;;;;;;;5054026;22;20756;-71
2023/03/07 11:40:23;;;;;;;7.30;4.43;;;;;;;;;;5050402;28;20195;-72
2023/03/07 11:42:59;;;;;;;9.77;5.15;;;;;;;;;;5050967;28;20214;-72
2023/03/07 11:45:32;;;;;;;8.90;5.05;;;;;;;;;;5055297;28;20198;-74
2023/03/07 11:48:05;;;;;;;8.43;4.97;;;;;;;;;;5055223;28;20218;-70
2023/03/07 11:50:33;;;;;;;7.80;5.07;;;;;;;;;;5055552;28;20217;-70
2023/03/07 11:53:20;;;;;;;8.73;4.80;;;;;;;;;;5053394;28;20199;-69
2023/03/07 11:55:50;;;;;;;9.10;5.38;;;;;;;;;;5036187;28;20563;-69
2023/03/07 11:58:26;;;;;;;6.95;4.55;;;;;;;;;;5035684;28;20234;-69
2023/03/07 12:01:03;;;;;;;9.80;5.90;;;;;;;;;;5048225;28;20205;-69
2023/03/07 12:03:43;;;;;;;9.02;5.15;;;;;;;;;;5055001;28;20567;-69
2023/03/07 12:06:26;;;;;;;6.13;4.68;;;;;;;;;;5055243;28;20227;-69
2023/03/07 12:09:03;;;;;;;8.20;5.72;;;;;;;;;;5042352;28;20195;-69
2023/03/07 12:11:42;;;;;;;6.95;4.55;;;;;;;;;;5034152;28;20573;-69
2023/03/07 12:14:16;;;;;;;8.13;5.32;;;;;;;;;;5035312;28;20396;-69
2023/03/07 12:16:47;;;;;;;6.90;5.70;;;;;;;;;;5034642;28;20215;-69
2023/03/07 12:19:21;;;;;;;8.40;6.00;;;;;;;;;;5034981;28;20230;-69
2023/03/07 12:22:03;;;;;;;9.63;6.13;;;;;;;;;;5034847;28;20207;-69
2023/03/07 12:24:33;;;;;;;8.50;5.05;;;;;;;;;;5038168;28;20225;-69
2023/03/07 12:27:03;;;;;;;10.15;6.47;;;;;;;;;;5051932;28;20219;-69
2023/03/07 12:29:35;;;;;;;11.00;6.20;;;;;;;;;;5035124;28;20214;-69
2023/03/07 12:32:04;;;;;;;8.23;5.88;;;;;;;;;;5033840;28;20234;-69
2023/03/07 12:34:34;;;;;;;6.20;4.97;;;;;;;;;;5034499;28;20640;-69
2023/03/07 12:37:03;;;;;;;7.85;5.43;;;;;;;;;;5034816;28;20230;-69
2023/03/07 12:39:33;;;;;;;8.27;5.60;;;;;;;;;;5034644;28;20207;-69
2023/03/07 12:42:02;;;;;;;5.40;4.60;;;;;;;;;;5047550;28;20211;-69
2023/03/07 12:44:36;;;;;;;6.85;5.25;;;;;;;;;;5053166;28;20558;-69
2023/03/07 12:47:09;;;;;;;6.18;5.20;;;;;;;;;;5054538;28;20211;-69
2023/03/07 12:49:40;;;;;;;8.15;5.50;;;;;;;;;;5054582;28;20693;-70
2023/03/07 12:52:13;;;;;;;6.95;5.38;;;;;;;;;;5052747;28;20569;-72
2023/03/07 12:54:43;;;;;;;7.63;5.35;;;;;;;;;;5051720;28;20210;-69
2023/03/07 12:57:12;;;;;;;6.80;5.10;;;;;;;;;;5051373;28;20222;-69
2023/03/07 12:59:43;;;;;;;6.38;4.90;;;;;;;;;;5053758;28;20199;-71
2023/03/07 13:02:12;;;;;;;5.03;4.47;;;;;;;;;;5052329;28;20540;-72
2023/03/07 13:04:41;;;;;;;6.25;4.18;;;;;;;;;;5053388;28;20210;-72
2023/03/07 13:07:09;;;;;;;5.10;4.32;;;;;;;;;;5053564;28;20309;-72
2023/03/07 13:09:38;;;;;;;3.47;3.10;;;;;;;;;;5054248;28;20206;-74
2023/03/07 13:12:22;;;;;;;6.82;3.95;;;;;;;;;;5048487;28;20202;-72
2023/03/07 13:14:51;;;;;;;8.60;5.07;;;;;;;;;;5054070;28;20404;-74
2023/03/07 13:17:33;;;;;;;8.15;5.43;;;;;;;;;;5053930;28;20245;-73
2023/03/07 13:20:01;;;;;;;7.45;5.28;;;;;;;;;;5052566;28;20200;-74
2023/03/07 13:22:46;;;;;;;7.47;4.93;;;;;;;;;;5045719;28;20202;-74
2023/03/07 13:25:34;;;;;;;7.70;4.93;;;;;;;;;;5047221;28;20207;-74
2023/03/07 13:28:02;;;;;;;8.15;5.95;;;;;;;;;;5050905;28;20211;-73
2023/03/07 13:30:31;;;;;;;11.30;6.22;;;;;;;;;;5051408;28;20203;-74
2023/03/07 13:32:59;;;;;;;7.50;5.35;;;;;;;;;;5051506;28;20198;-73
2023/03/07 13:35:56;;;;;;;8.10;4.88;;;;;;;;;;5052095;28;20744;-73
2023/03/07 13:38:34;;;;;;;8.02;5.00;;;;;;;;;;5004368;28;20720;-75
2023/03/07 13:41:02;;;;;;;7.03;5.70;;;;;;;;;;5041523;28;20407;-72
2023/03/07 13:43:56;;;;;;;10.60;5.18;;;;;;;;;;5044066;28;20203;-72
2023/03/07 13:46:45;;;;;;;6.90;4.93;;;;;;;;;;5053129;28;20226;-73
2023/03/07 13:49:12;;;;;;;7.03;5.03;;;;;;;;;;5032433;28;20649;-73
2023/03/07 13:51:39;;;;;;;6.50;4.60;;;;;;;;;;5034474;28;20203;-72
2023/03/07 13:54:07;;;;;;;8.63;4.75;;;;;;;;;;5049927;28;20194;-74
2023/03/07 13:56:37;;;;;;;5.97;3.65;;;;;;;;;;5050623;28;20219;-72
2023/03/07 13:59:11;;;;;;;4.50;3.47;;;;;;;;;;5052009;28;20218;-73
2023/03/07 14:01:43;;;;;;;5.60;4.00;;;;;;;;;;5042976;28;20203;-71
2023/03/07 14:04:14;;;;;;;3.30;2.97;;;;;;;;;;5047730;28;20214;-72
2023/03/07 14:06:42;;;;;;;3.80;2.80;;;;;;;;;;5050244;28;20218;-73
2023/03/07 14:09:14;;;;;;;2.95;2.63;;;;;;;;;;5053087;28;20195;-72
2023/03/07 14:11:45;;;;;;;3.30;2.42;;;;;;;;;;5050394;28;20206;-73
2023/03/07 14:14:22;;;;;;;3.03;2.33;;;;;;;;;;5051532;28;20206;-74
2023/03/07 14:17:00;;;;;;;3.10;2.30;;;;;;;;;;5052993;28;20222;-71
2023/03/07 14:19:36;;;;;;;2.10;1.90;;;;;;;;;;5051469;28;20226;-72
2023/03/07 14:22:05;;;;;;;3.13;2.15;;;;;;;;;;5052268;28;20199;-72
2023/03/07 14:24:39;;;;;;;2.42;2.17;;;;;;;;;;5047806;28;20199;-72
2023/03/07 14:27:07;;;;;;;2.65;2.15;;;;;;;;;;5051818;28;20226;-71
2023/03/07 14:29:34;;;;;;;3.70;2.60;;;;;;;;;;5052808;28;20203;-75
2023/03/07 14:32:02;;;;;;;2.63;2.38;;;;;;;;;;5043913;28;20299;-75
2023/03/07 14:34:30;;;;;;;2.80;2.28;;;;;;;;;;5039149;28;20431;-73
2023/03/07 14:36:59;;;;;;;5.68;2.70;;;;;;;;;;5051410;28;20226;-72
2023/03/07 14:39:27;;;;;;;4.57;2.95;;;;;;;;;;5031637;28;20223;-73
2023/03/07 14:42:01;;;;;;;2.65;2.20;;;;;;;;;;5032473;28;20639;-74
2023/03/07 14:44:37;;;;;;;5.25;2.90;;;;;;;;;;5032444;28;20199;-74
2023/03/07 14:47:14;;;;;;;3.30;2.58;;;;;;;;;;5048914;28;20225;-73
2023/03/07 14:49:44;;;;;;;4.20;2.53;;;;;;;;;;5050249;28;20210;-75
2023/03/07 14:52:13;;;;;;;3.60;3.10;;;;;;;;;;5048944;28;20202;-70
2023/03/07 14:54:40;;;;;;;4.57;3.78;;;;;;;;;;5049030;28;20203;-77